Anaya — WDE5689 — position and weather

sailwx.info

Track history (hours):
 
Tides and Currents Weather Stations Pressure Air Temp Water Temp Dewpoint Dewpoint Depression Visibility Wind Speed Wind Dir Waves Ship Positions

Anaya

Owner: MKL Holdings, LLC, Bellevue, WA. More information available from US FCC via Universal Licensing System and Coast Guard Vessel Documentation Center.

Last reported at 2017-Sep-10 00:56 UTC. Time now 2017-Sep-25 22:54 UTC.
Position N 47°39' W 122°20'.
Warning: this ship's position is 15 days out of date.

Length 25 m; draft 2 m.

Type: Pleasure craft. MMSI: 367370340.

Date/timePositionNaut miles runAvg speedWind from/ knotsBaromVisibWave heightAir tempDewpointWater temp
2017-Sep-10 00:56N 47°39' W 122°20'0 0.0
2017-Sep-10 00:30N 47°39' W 122°20'0 0.0
2017-Sep-10 00:00N 47°39' W 122°20'0 0.0
2017-Sep-09 23:30N 47°39' W 122°20'0 0.0
2017-Sep-09 23:00N 47°39' W 122°20'1 1.3
2017-Sep-09 22:30N 47°39' W 122°21'2 3.8
2017-Sep-09 22:00N 47°40' W 122°24'0 0.0
2017-Sep-09 21:30N 47°40' W 122°24'0 0.3
2017-Sep-09 21:00N 47°40' W 122°24'0 0.4
2017-Sep-09 20:30N 47°40' W 122°24'5 9.5
2017-Sep-09 20:00N 47°45' W 122°26'611.8
2017-Sep-09 19:30N 47°50' W 122°29'611.1
2017-Sep-09 19:00N 47°56' W 122°32'5 9.9
2017-Sep-09 18:30N 47°59' W 122°36'19 9.9
2017-Sep-09 16:36N 48°14' W 122°53'311.8
2017-Sep-09 16:20N 48°17' W 122°56'712.6
2017-Sep-09 15:49N 48°23' W 123°01'412.6
2017-Sep-09 15:30N 48°26' W 123°05'611.4
2017-Sep-09 15:00N 48°30' W 123°10'510.7
2017-Sep-09 14:30N 48°36' W 123°11'1 2.6
2017-Sep-09 14:00N 48°37' W 123°09'0 0.0
2017-Sep-09 13:30N 48°37' W 123°09'0 0.0
2017-Sep-09 13:00N 48°37' W 123°09'0 0.0
2017-Sep-09 12:30N 48°37' W 123°09'0 0.0
2017-Sep-09 12:00N 48°37' W 123°09'0 0.0
2017-Sep-09 11:30N 48°37' W 123°09'0 0.0
2017-Sep-09 11:00N 48°37' W 123°09'0 0.0
2017-Sep-09 10:30N 48°37' W 123°09'0 0.0
2017-Sep-09 10:00N 48°37' W 123°09'0 0.0
2017-Sep-09 09:30N 48°37' W 123°09'0 0.0
2017-Sep-09 09:00N 48°37' W 123°09'0 0.0
2017-Sep-09 08:30N 48°37' W 123°09'0 0.0
2017-Sep-09 08:00N 48°37' W 123°09'0 0.0
2017-Sep-09 07:30N 48°37' W 123°09'0 0.0
2017-Sep-09 07:00N 48°37' W 123°09'0 0.0
2017-Sep-09 06:30N 48°37' W 123°09'0 0.0
2017-Sep-09 06:00N 48°37' W 123°09'0 0.0
2017-Sep-09 05:30N 48°37' W 123°09'0 0.0
2017-Sep-09 05:00N 48°37' W 123°09'0 0.0
2017-Sep-09 04:30N 48°37' W 123°09'0 0.0
2017-Sep-09 04:00N 48°37' W 123°09'0 0.0
2017-Sep-09 03:30N 48°37' W 123°09'0 0.0
2017-Sep-09 03:00N 48°37' W 123°09'0 0.0
2017-Sep-09 02:30N 48°37' W 123°09'0 0.0
2017-Sep-09 02:00N 48°37' W 123°09'  
Track history (hours):
 
Tides and Currents Weather Stations Pressure Air Temp Water Temp Dewpoint Dewpoint Depression Visibility Wind Speed Wind Dir Waves Ship Positions

Anaya

Owner: MKL Holdings, LLC, Bellevue, WA. More information available from US FCC via Universal Licensing System and Coast Guard Vessel Documentation Center.

Last reported at 2017-Sep-10 00:56 UTC. Time now 2017-Sep-25 22:54 UTC.
Position N 47°39' W 122°20'.
Warning: this ship's position is 15 days out of date.

Length 25 m; draft 2 m.

Type: Pleasure craft. MMSI: 367370340.

Date/timePositionNaut miles runAvg speedWind from/ knotsBaromVisibWave heightAir tempDewpointWater temp
2017-Sep-10 00:56N 47°39' W 122°20'0 0.0
2017-Sep-10 00:30N 47°39' W 122°20'0 0.0
2017-Sep-10 00:00N 47°39' W 122°20'0 0.0
2017-Sep-09 23:30N 47°39' W 122°20'0 0.0
2017-Sep-09 23:00N 47°39' W 122°20'1 1.3
2017-Sep-09 22:30N 47°39' W 122°21'2 3.8
2017-Sep-09 22:00N 47°40' W 122°24'0 0.0
2017-Sep-09 21:30N 47°40' W 122°24'0 0.3
2017-Sep-09 21:00N 47°40' W 122°24'0 0.4
2017-Sep-09 20:30N 47°40' W 122°24'5 9.5
2017-Sep-09 20:00N 47°45' W 122°26'611.8
2017-Sep-09 19:30N 47°50' W 122°29'611.1
2017-Sep-09 19:00N 47°56' W 122°32'5 9.9
2017-Sep-09 18:30N 47°59' W 122°36'19 9.9
2017-Sep-09 16:36N 48°14' W 122°53'311.8
2017-Sep-09 16:20N 48°17' W 122°56'712.6
2017-Sep-09 15:49N 48°23' W 123°01'412.6
2017-Sep-09 15:30N 48°26' W 123°05'611.4
2017-Sep-09 15:00N 48°30' W 123°10'510.7
2017-Sep-09 14:30N 48°36' W 123°11'1 2.6
2017-Sep-09 14:00N 48°37' W 123°09'0 0.0
2017-Sep-09 13:30N 48°37' W 123°09'0 0.0
2017-Sep-09 13:00N 48°37' W 123°09'0 0.0
2017-Sep-09 12:30N 48°37' W 123°09'0 0.0
2017-Sep-09 12:00N 48°37' W 123°09'0 0.0
2017-Sep-09 11:30N 48°37' W 123°09'0 0.0
2017-Sep-09 11:00N 48°37' W 123°09'0 0.0
2017-Sep-09 10:30N 48°37' W 123°09'0 0.0
2017-Sep-09 10:00N 48°37' W 123°09'0 0.0
2017-Sep-09 09:30N 48°37' W 123°09'0 0.0
2017-Sep-09 09:00N 48°37' W 123°09'0 0.0
2017-Sep-09 08:30N 48°37' W 123°09'0 0.0
2017-Sep-09 08:00N 48°37' W 123°09'0 0.0
2017-Sep-09 07:30N 48°37' W 123°09'0 0.0
2017-Sep-09 07:00N 48°37' W 123°09'0 0.0
2017-Sep-09 06:30N 48°37' W 123°09'0 0.0
2017-Sep-09 06:00N 48°37' W 123°09'0 0.0
2017-Sep-09 05:30N 48°37' W 123°09'0 0.0
2017-Sep-09 05:00N 48°37' W 123°09'0 0.0
2017-Sep-09 04:30N 48°37' W 123°09'0 0.0
2017-Sep-09 04:00N 48°37' W 123°09'0 0.0
2017-Sep-09 03:30N 48°37' W 123°09'0 0.0
2017-Sep-09 03:00N 48°37' W 123°09'0 0.0
2017-Sep-09 02:30N 48°37' W 123°09'0 0.0
2017-Sep-09 02:00N 48°37' W 123°09'  

Dump ship's entire track history